sensor_id;sensor_type;location;lat;lon;timestamp;temperature;humidity
69382;DHT22;56560;50.692;12.844;2022-10-12T00:02:04;4.30;86.60
69382;DHT22;56560;50.692;12.844;2022-10-12T00:04:30;4.20;86.60
69382;DHT22;56560;50.692;12.844;2022-10-12T00:06:55;4.10;86.90
69382;DHT22;56560;50.692;12.844;2022-10-12T00:09:21;4.00;87.10
69382;DHT22;56560;50.692;12.844;2022-10-12T00:11:46;4.00;88.50
69382;DHT22;56560;50.692;12.844;2022-10-12T00:14:12;4.00;87.10
69382;DHT22;56560;50.692;12.844;2022-10-12T00:16:38;3.90;87.20
69382;DHT22;56560;50.692;12.844;2022-10-12T00:19:03;3.90;88.50
69382;DHT22;56560;50.692;12.844;2022-10-12T00:21:29;3.90;87.70
69382;DHT22;56560;50.692;12.844;2022-10-12T00:23:56;3.80;87.30
69382;DHT22;56560;50.692;12.844;2022-10-12T00:26:23;3.70;86.70
69382;DHT22;56560;50.692;12.844;2022-10-12T00:28:54;3.70;87.10
69382;DHT22;56560;50.692;12.844;2022-10-12T00:31:21;3.60;87.70
69382;DHT22;56560;50.692;12.844;2022-10-12T00:33:47;3.50;88.00
69382;DHT22;56560;50.692;12.844;2022-10-12T00:38:41;3.40;87.50
69382;DHT22;56560;50.692;12.844;2022-10-12T00:41:08;3.40;88.00
69382;DHT22;56560;50.692;12.844;2022-10-12T00:43:37;3.30;87.70
69382;DHT22;56560;50.692;12.844;2022-10-12T00:46:36;3.20;87.80
69382;DHT22;56560;50.692;12.844;2022-10-12T00:49:22;3.10;87.60
69382;DHT22;56560;50.692;12.844;2022-10-12T00:51:56;3.10;88.30
69382;DHT22;56560;50.692;12.844;2022-10-12T00:54:26;3.10;89.10
69382;DHT22;56560;50.692;12.844;2022-10-12T00:56:54;3.10;89.40
69382;DHT22;56560;50.692;12.844;2022-10-12T00:59:25;3.10;88.40
69382;DHT22;56560;50.692;12.844;2022-10-12T01:01:53;3.00;88.30
69382;DHT22;56560;50.692;12.844;2022-10-12T01:04:19;3.10;89.10
69382;DHT22;56560;50.692;12.844;2022-10-12T01:06:45;3.10;88.80
69382;DHT22;56560;50.692;12.844;2022-10-12T01:09:11;3.10;90.70
69382;DHT22;56560;50.692;12.844;2022-10-12T01:11:37;3.20;90.50
69382;DHT22;56560;50.692;12.844;2022-10-12T01:14:02;3.30;90.20
69382;DHT22;56560;50.692;12.844;2022-10-12T01:16:37;3.30;88.80
69382;DHT22;56560;50.692;12.844;2022-10-12T01:22:04;3.30;87.90
69382;DHT22;56560;50.692;12.844;2022-10-12T01:30:08;3.60;87.90
69382;DHT22;56560;50.692;12.844;2022-10-12T01:35:37;4.00;86.50
69382;DHT22;56560;50.692;12.844;2022-10-12T01:38:14;4.00;86.30
69382;DHT22;56560;50.692;12.844;2022-10-12T01:40:57;4.10;88.10
69382;DHT22;56560;50.692;12.844;2022-10-12T01:43:33;4.20;87.60
69382;DHT22;56560;50.692;12.844;2022-10-12T01:48:54;4.30;86.50
69382;DHT22;56560;50.692;12.844;2022-10-12T02:00:16;4.40;87.40
69382;DHT22;56560;50.692;12.844;2022-10-12T02:10:53;4.30;85.80
69382;DHT22;56560;50.692;12.844;2022-10-12T02:13:23;4.20;86.20
69382;DHT22;56560;50.692;12.844;2022-10-12T02:15:51;4.30;88.30
69382;DHT22;56560;50.692;12.844;2022-10-12T02:18:19;4.30;87.50
69382;DHT22;56560;50.692;12.844;2022-10-12T02:20:47;4.20;86.50
69382;DHT22;56560;50.692;12.844;2022-10-12T02:23:15;4.10;86.40
69382;DHT22;56560;50.692;12.844;2022-10-12T02:25:42;4.10;86.50
69382;DHT22;56560;50.692;12.844;2022-10-12T02:28:11;4.00;87.60
69382;DHT22;56560;50.692;12.844;2022-10-12T02:30:46;4.00;88.10
69382;DHT22;56560;50.692;12.844;2022-10-12T02:33:21;3.90;87.50
69382;DHT22;56560;50.692;12.844;2022-10-12T02:36:10;3.90;88.60
69382;DHT22;56560;50.692;12.844;2022-10-12T02:38:42;3.90;88.10
69382;DHT22;56560;50.692;12.844;2022-10-12T02:41:16;3.80;87.40
69382;DHT22;56560;50.692;12.844;2022-10-12T02:43:49;3.80;87.30
69382;DHT22;56560;50.692;12.844;2022-10-12T02:46:18;3.80;87.70
69382;DHT22;56560;50.692;12.844;2022-10-12T02:48:45;3.90;89.60
69382;DHT22;56560;50.692;12.844;2022-10-12T02:51:12;4.10;88.40
69382;DHT22;56560;50.692;12.844;2022-10-12T02:53:38;4.10;87.00
69382;DHT22;56560;50.692;12.844;2022-10-12T02:56:11;4.10;86.30
69382;DHT22;56560;50.692;12.844;2022-10-12T02:58:37;4.20;88.20
69382;DHT22;56560;50.692;12.844;2022-10-12T03:01:03;4.20;88.00
69382;DHT22;56560;50.692;12.844;2022-10-12T03:03:29;4.10;86.50
69382;DHT22;56560;50.692;12.844;2022-10-12T03:05:55;4.00;86.40
69382;DHT22;56560;50.692;12.844;2022-10-12T03:08:21;3.90;86.70
69382;DHT22;56560;50.692;12.844;2022-10-12T03:10:46;3.80;87.00
69382;DHT22;56560;50.692;12.844;2022-10-12T03:13:12;3.70;87.40
69382;DHT22;56560;50.692;12.844;2022-10-12T03:15:38;3.60;88.20
69382;DHT22;56560;50.692;12.844;2022-10-12T03:18:03;3.60;88.70
69382;DHT22;56560;50.692;12.844;2022-10-12T03:20:29;3.50;87.70
69382;DHT22;56560;50.692;12.844;2022-10-12T03:22:55;3.40;87.70
69382;DHT22;56560;50.692;12.844;2022-10-12T03:25:20;3.30;87.70
69382;DHT22;56560;50.692;12.844;2022-10-12T03:27:46;3.20;88.70
69382;DHT22;56560;50.692;12.844;2022-10-12T03:30:12;3.20;88.20
69382;DHT22;56560;50.692;12.844;2022-10-12T03:32:38;3.10;88.40
69382;DHT22;56560;50.692;12.844;2022-10-12T03:35:04;3.10;89.00
69382;DHT22;56560;50.692;12.844;2022-10-12T03:37:31;3.10;89.00
69382;DHT22;56560;50.692;12.844;2022-10-12T03:39:56;3.00;88.70
69382;DHT22;56560;50.692;12.844;2022-10-12T03:42:22;3.00;88.50
69382;DHT22;56560;50.692;12.844;2022-10-12T03:44:48;2.90;88.40
69382;DHT22;56560;50.692;12.844;2022-10-12T03:47:13;2.90;89.90
69382;DHT22;56560;50.692;12.844;2022-10-12T03:49:39;2.90;90.90
69382;DHT22;56560;50.692;12.844;2022-10-12T03:52:05;2.90;89.90
69382;DHT22;56560;50.692;12.844;2022-10-12T03:54:30;2.90;90.30
69382;DHT22;56560;50.692;12.844;2022-10-12T03:56:56;2.90;89.10
69382;DHT22;56560;50.692;12.844;2022-10-12T03:59:21;2.90;88.60
69382;DHT22;56560;50.692;12.844;2022-10-12T04:01:47;2.90;88.90
69382;DHT22;56560;50.692;12.844;2022-10-12T04:04:13;2.80;89.10
69382;DHT22;56560;50.692;12.844;2022-10-12T04:06:38;2.80;88.90
69382;DHT22;56560;50.692;12.844;2022-10-12T04:09:07;2.80;89.10
69382;DHT22;56560;50.692;12.844;2022-10-12T04:11:32;2.90;90.20
69382;DHT22;56560;50.692;12.844;2022-10-12T04:13:58;2.80;89.30
69382;DHT22;56560;50.692;12.844;2022-10-12T04:16:23;2.80;89.10
69382;DHT22;56560;50.692;12.844;2022-10-12T04:18:49;2.80;90.00
69382;DHT22;56560;50.692;12.844;2022-10-12T04:21:15;2.80;89.60
69382;DHT22;56560;50.692;12.844;2022-10-12T04:23:41;2.80;88.80
69382;DHT22;56560;50.692;12.844;2022-10-12T04:26:08;2.80;88.60
69382;DHT22;56560;50.692;12.844;2022-10-12T04:28:33;2.80;90.80
69382;DHT22;56560;50.692;12.844;2022-10-12T04:30:59;2.90;89.30
69382;DHT22;56560;50.692;12.844;2022-10-12T04:33:25;3.00;90.30
69382;DHT22;56560;50.692;12.844;2022-10-12T04:35:50;3.10;88.70
69382;DHT22;56560;50.692;12.844;2022-10-12T04:38:16;3.20;87.60
69382;DHT22;56560;50.692;12.844;2022-10-12T04:40:48;3.20;87.40
69382;DHT22;56560;50.692;12.844;2022-10-12T04:43:15;3.20;87.80
69382;DHT22;56560;50.692;12.844;2022-10-12T04:45:40;3.20;88.10
69382;DHT22;56560;50.692;12.844;2022-10-12T04:48:06;3.20;88.80
69382;DHT22;56560;50.692;12.844;2022-10-12T04:50:32;3.20;88.00
69382;DHT22;56560;50.692;12.844;2022-10-12T04:52:57;3.20;88.40
69382;DHT22;56560;50.692;12.844;2022-10-12T04:55:23;3.10;88.00
69382;DHT22;56560;50.692;12.844;2022-10-12T04:57:49;3.10;88.40
69382;DHT22;56560;50.692;12.844;2022-10-12T05:00:15;3.10;88.30
69382;DHT22;56560;50.692;12.844;2022-10-12T05:02:41;3.00;88.20
69382;DHT22;56560;50.692;12.844;2022-10-12T05:05:07;3.00;88.60
69382;DHT22;56560;50.692;12.844;2022-10-12T05:07:33;3.00;89.10
69382;DHT22;56560;50.692;12.844;2022-10-12T05:09:59;3.00;88.40
69382;DHT22;56560;50.692;12.844;2022-10-12T05:12:24;3.00;89.10
69382;DHT22;56560;50.692;12.844;2022-10-12T05:14:51;3.00;88.50
69382;DHT22;56560;50.692;12.844;2022-10-12T05:17:17;3.10;89.00
69382;DHT22;56560;50.692;12.844;2022-10-12T05:19:46;3.10;89.10
69382;DHT22;56560;50.692;12.844;2022-10-12T05:22:11;3.10;89.10
69382;DHT22;56560;50.692;12.844;2022-10-12T05:24:37;3.10;88.80
69382;DHT22;56560;50.692;12.844;2022-10-12T05:27:03;3.20;88.00
69382;DHT22;56560;50.692;12.844;2022-10-12T05:29:28;3.20;87.50
69382;DHT22;56560;50.692;12.844;2022-10-12T05:31:54;3.10;87.50
69382;DHT22;56560;50.692;12.844;2022-10-12T05:34:20;3.20;87.80
69382;DHT22;56560;50.692;12.844;2022-10-12T05:36:45;3.20;88.30
69382;DHT22;56560;50.692;12.844;2022-10-12T05:39:11;3.40;88.00
69382;DHT22;56560;50.692;12.844;2022-10-12T05:41:37;3.50;87.60
69382;DHT22;56560;50.692;12.844;2022-10-12T05:44:03;3.60;87.80
69382;DHT22;56560;50.692;12.844;2022-10-12T05:46:28;3.70;87.30
69382;DHT22;56560;50.692;12.844;2022-10-12T05:48:54;3.80;86.70
69382;DHT22;56560;50.692;12.844;2022-10-12T05:51:19;3.90;86.70
69382;DHT22;56560;50.692;12.844;2022-10-12T05:53:45;3.90;86.00
69382;DHT22;56560;50.692;12.844;2022-10-12T05:56:11;3.90;86.00
69382;DHT22;56560;50.692;12.844;2022-10-12T05:58:36;3.90;85.60
69382;DHT22;56560;50.692;12.844;2022-10-12T06:01:07;3.90;87.10
69382;DHT22;56560;50.692;12.844;2022-10-12T06:03:33;3.90;87.10
69382;DHT22;56560;50.692;12.844;2022-10-12T06:05:59;3.90;86.90
69382;DHT22;56560;50.692;12.844;2022-10-12T06:08:24;4.00;87.20
69382;DHT22;56560;50.692;12.844;2022-10-12T06:10:50;4.00;86.90
69382;DHT22;56560;50.692;12.844;2022-10-12T06:13:17;4.10;86.10
69382;DHT22;56560;50.692;12.844;2022-10-12T06:15:45;4.20;86.20
69382;DHT22;56560;50.692;12.844;2022-10-12T06:18:12;4.40;84.90
69382;DHT22;56560;50.692;12.844;2022-10-12T06:20:37;4.40;85.50
69382;DHT22;56560;50.692;12.844;2022-10-12T06:23:03;4.60;84.90
69382;DHT22;56560;50.692;12.844;2022-10-12T06:25:29;4.70;84.70
69382;DHT22;56560;50.692;12.844;2022-10-12T06:27:54;4.90;84.80
69382;DHT22;56560;50.692;12.844;2022-10-12T06:30:20;4.90;84.10
69382;DHT22;56560;50.692;12.844;2022-10-12T06:32:45;5.00;84.50
69382;DHT22;56560;50.692;12.844;2022-10-12T06:35:11;5.10;84.40
69382;DHT22;56560;50.692;12.844;2022-10-12T06:37:37;5.20;84.80
69382;DHT22;56560;50.692;12.844;2022-10-12T06:40:03;5.30;84.00
69382;DHT22;56560;50.692;12.844;2022-10-12T06:42:30;5.30;84.20
69382;DHT22;56560;50.692;12.844;2022-10-12T06:44:56;5.40;85.00
69382;DHT22;56560;50.692;12.844;2022-10-12T06:47:21;5.50;83.90
69382;DHT22;56560;50.692;12.844;2022-10-12T06:49:47;5.50;83.40
69382;DHT22;56560;50.692;12.844;2022-10-12T06:52:12;5.70;82.80
69382;DHT22;56560;50.692;12.844;2022-10-12T06:54:38;5.70;83.20
69382;DHT22;56560;50.692;12.844;2022-10-12T06:57:06;5.70;82.70
69382;DHT22;56560;50.692;12.844;2022-10-12T06:59:31;5.70;82.80
69382;DHT22;56560;50.692;12.844;2022-10-12T07:01:57;5.70;83.10
69382;DHT22;56560;50.692;12.844;2022-10-12T07:04:23;5.70;84.10
69382;DHT22;56560;50.692;12.844;2022-10-12T07:06:48;5.70;83.90
69382;DHT22;56560;50.692;12.844;2022-10-12T07:09:15;5.80;84.50
69382;DHT22;56560;50.692;12.844;2022-10-12T07:11:41;5.80;83.90
69382;DHT22;56560;50.692;12.844;2022-10-12T07:14:06;5.90;84.20
69382;DHT22;56560;50.692;12.844;2022-10-12T07:16:32;5.90;84.10
69382;DHT22;56560;50.692;12.844;2022-10-12T07:18:58;6.00;84.70
69382;DHT22;56560;50.692;12.844;2022-10-12T07:21:24;6.20;83.90
69382;DHT22;56560;50.692;12.844;2022-10-12T07:23:51;6.40;83.70
69382;DHT22;56560;50.692;12.844;2022-10-12T07:26:17;6.70;82.60
69382;DHT22;56560;50.692;12.844;2022-10-12T07:28:42;6.80;82.60
69382;DHT22;56560;50.692;12.844;2022-10-12T07:31:08;7.00;82.90
69382;DHT22;56560;50.692;12.844;2022-10-12T07:33:35;7.30;82.50
69382;DHT22;56560;50.692;12.844;2022-10-12T07:36:03;7.50;81.50
69382;DHT22;56560;50.692;12.844;2022-10-12T07:38:28;7.60;80.80
69382;DHT22;56560;50.692;12.844;2022-10-12T07:40:57;7.70;80.70
69382;DHT22;56560;50.692;12.844;2022-10-12T07:43:23;7.60;81.60
69382;DHT22;56560;50.692;12.844;2022-10-12T07:45:49;7.60;81.20
69382;DHT22;56560;50.692;12.844;2022-10-12T07:48:14;7.60;82.00
69382;DHT22;56560;50.692;12.844;2022-10-12T07:50:40;7.60;82.70
69382;DHT22;56560;50.692;12.844;2022-10-12T07:53:06;7.60;83.20
69382;DHT22;56560;50.692;12.844;2022-10-12T07:55:32;7.70;82.80
69382;DHT22;56560;50.692;12.844;2022-10-12T07:57:58;7.70;82.50
69382;DHT22;56560;50.692;12.844;2022-10-12T08:00:24;7.80;82.40
69382;DHT22;56560;50.692;12.844;2022-10-12T08:02:50;8.00;82.50
69382;DHT22;56560;50.692;12.844;2022-10-12T08:05:16;8.30;82.60
69382;DHT22;56560;50.692;12.844;2022-10-12T08:07:49;8.50;81.90
69382;DHT22;56560;50.692;12.844;2022-10-12T08:10:16;8.60;81.80
69382;DHT22;56560;50.692;12.844;2022-10-12T08:12:43;8.80;81.10
69382;DHT22;56560;50.692;12.844;2022-10-12T08:15:10;9.10;80.50
69382;DHT22;56560;50.692;12.844;2022-10-12T08:17:36;9.40;79.00
69382;DHT22;56560;50.692;12.844;2022-10-12T08:20:01;9.60;78.60
69382;DHT22;56560;50.692;12.844;2022-10-12T08:22:27;9.70;79.40
69382;DHT22;56560;50.692;12.844;2022-10-12T08:24:52;9.80;79.20
69382;DHT22;56560;50.692;12.844;2022-10-12T08:27:18;9.90;78.90
69382;DHT22;56560;50.692;12.844;2022-10-12T08:29:44;10.10;78.60
69382;DHT22;56560;50.692;12.844;2022-10-12T08:32:09;10.10;78.50
69382;DHT22;56560;50.692;12.844;2022-10-12T08:34:35;10.10;78.40
69382;DHT22;56560;50.692;12.844;2022-10-12T08:37:00;10.20;78.50
69382;DHT22;56560;50.692;12.844;2022-10-12T08:39:26;10.30;77.80
69382;DHT22;56560;50.692;12.844;2022-10-12T08:44:49;10.80;77.10
69382;DHT22;56560;50.692;12.844;2022-10-12T08:47:30;11.00;75.50
69382;DHT22;56560;50.692;12.844;2022-10-12T08:49:59;11.20;74.20
69382;DHT22;56560;50.692;12.844;2022-10-12T08:52:30;11.60;75.30
69382;DHT22;56560;50.692;12.844;2022-10-12T08:55:02;11.90;74.70
69382;DHT22;56560;50.692;12.844;2022-10-12T08:57:31;12.40;73.20
69382;DHT22;56560;50.692;12.844;2022-10-12T08:59:57;12.80;70.00
69382;DHT22;56560;50.692;12.844;2022-10-12T09:05:17;13.90;63.30
69382;DHT22;56560;50.692;12.844;2022-10-12T09:08:18;14.30;61.50
69382;DHT22;56560;50.692;12.844;2022-10-12T09:13:44;14.90;60.00
69382;DHT22;56560;50.692;12.844;2022-10-12T09:16:23;15.10;58.70
69382;DHT22;56560;50.692;12.844;2022-10-12T09:18:56;15.30;56.40
69382;DHT22;56560;50.692;12.844;2022-10-12T09:21:24;15.60;56.60
69382;DHT22;56560;50.692;12.844;2022-10-12T09:23:51;15.70;53.30
69382;DHT22;56560;50.692;12.844;2022-10-12T09:26:24;15.60;53.10
69382;DHT22;56560;50.692;12.844;2022-10-12T09:28:53;15.70;54.40
69382;DHT22;56560;50.692;12.844;2022-10-12T09:34:03;15.90;54.00
69382;DHT22;56560;50.692;12.844;2022-10-12T09:36:33;16.10;53.10
69382;DHT22;56560;50.692;12.844;2022-10-12T09:39:01;16.00;52.10
69382;DHT22;56560;50.692;12.844;2022-10-12T09:41:36;15.90;52.80
69382;DHT22;56560;50.692;12.844;2022-10-12T09:44:05;15.80;52.70
69382;DHT22;56560;50.692;12.844;2022-10-12T09:46:41;15.80;54.40
69382;DHT22;56560;50.692;12.844;2022-10-12T09:49:07;15.70;54.00
69382;DHT22;56560;50.692;12.844;2022-10-12T09:51:34;15.50;53.30
69382;DHT22;56560;50.692;12.844;2022-10-12T09:54:01;15.40;53.90
69382;DHT22;56560;50.692;12.844;2022-10-12T09:56:47;15.40;53.80
69382;DHT22;56560;50.692;12.844;2022-10-12T09:59:29;15.60;52.90
69382;DHT22;56560;50.692;12.844;2022-10-12T10:04:33;15.90;53.60
69382;DHT22;56560;50.692;12.844;2022-10-12T10:09:47;15.90;52.20
69382;DHT22;56560;50.692;12.844;2022-10-12T10:12:23;16.00;52.50
69382;DHT22;56560;50.692;12.844;2022-10-12T10:14:52;16.10;52.70
69382;DHT22;56560;50.692;12.844;2022-10-12T10:17:29;16.20;52.40
69382;DHT22;56560;50.692;12.844;2022-10-12T10:19:58;16.10;52.50
69382;DHT22;56560;50.692;12.844;2022-10-12T10:22:25;16.40;53.00
69382;DHT22;56560;50.692;12.844;2022-10-12T10:24:56;16.50;51.40
69382;DHT22;56560;50.692;12.844;2022-10-12T10:27:38;16.50;51.40
69382;DHT22;56560;50.692;12.844;2022-10-12T10:32:43;16.80;50.90
69382;DHT22;56560;50.692;12.844;2022-10-12T10:42:41;17.30;50.90
69382;DHT22;56560;50.692;12.844;2022-10-12T10:45:26;17.50;50.90
69382;DHT22;56560;50.692;12.844;2022-10-12T10:47:52;17.70;49.50
69382;DHT22;56560;50.692;12.844;2022-10-12T10:50:35;17.70;49.90
69382;DHT22;56560;50.692;12.844;2022-10-12T10:53:05;17.70;49.10
69382;DHT22;56560;50.692;12.844;2022-10-12T10:55:53;17.90;49.50
69382;DHT22;56560;50.692;12.844;2022-10-12T11:00:56;18.10;47.80
69382;DHT22;56560;50.692;12.844;2022-10-12T11:03:33;18.30;47.50
69382;DHT22;56560;50.692;12.844;2022-10-12T11:06:19;18.40;46.90
69382;DHT22;56560;50.692;12.844;2022-10-12T11:08:48;18.50;47.40
69382;DHT22;56560;50.692;12.844;2022-10-12T11:11:22;18.60;47.40
69382;DHT22;56560;50.692;12.844;2022-10-12T11:13:58;18.60;47.30
69382;DHT22;56560;50.692;12.844;2022-10-12T11:21:52;18.40;46.80
69382;DHT22;56560;50.692;12.844;2022-10-12T11:24:27;18.90;46.00
69382;DHT22;56560;50.692;12.844;2022-10-12T11:27:06;19.60;43.70
69382;DHT22;56560;50.692;12.844;2022-10-12T11:29:35;20.20;43.80
69382;DHT22;56560;50.692;12.844;2022-10-12T11:32:05;21.40;43.40
69382;DHT22;56560;50.692;12.844;2022-10-12T11:34:58;22.30;41.20
69382;DHT22;56560;50.692;12.844;2022-10-12T11:37:35;23.40;38.70
69382;DHT22;56560;50.692;12.844;2022-10-12T11:40:08;24.00;38.60
69382;DHT22;56560;50.692;12.844;2022-10-12T11:42:41;24.40;37.40
69382;DHT22;56560;50.692;12.844;2022-10-12T11:45:21;24.70;37.50
69382;DHT22;56560;50.692;12.844;2022-10-12T11:47:52;24.60;36.10
69382;DHT22;56560;50.692;12.844;2022-10-12T11:50:34;24.40;37.50
69382;DHT22;56560;50.692;12.844;2022-10-12T11:53:05;24.60;37.00
69382;DHT22;56560;50.692;12.844;2022-10-12T11:58:12;25.20;36.40
69382;DHT22;56560;50.692;12.844;2022-10-12T12:05:39;27.30;34.00
69382;DHT22;56560;50.692;12.844;2022-10-12T12:08:04;28.00;33.80
69382;DHT22;56560;50.692;12.844;2022-10-12T12:25:44;27.80;32.30
69382;DHT22;56560;50.692;12.844;2022-10-12T12:28:20;28.00;32.70
69382;DHT22;56560;50.692;12.844;2022-10-12T12:33:47;28.10;31.90
69382;DHT22;56560;50.692;12.844;2022-10-12T12:36:46;26.90;33.60
69382;DHT22;56560;50.692;12.844;2022-10-12T12:39:33;26.90;33.00
69382;DHT22;56560;50.692;12.844;2022-10-12T12:42:04;27.00;33.30
69382;DHT22;56560;50.692;12.844;2022-10-12T12:55:23;27.70;32.90
69382;DHT22;56560;50.692;12.844;2022-10-12T13:09:12;22.80;39.80
69382;DHT22;56560;50.692;12.844;2022-10-12T13:17:21;23.50;39.00
69382;DHT22;56560;50.692;12.844;2022-10-12T13:19:48;24.30;37.30
69382;DHT22;56560;50.692;12.844;2022-10-12T13:22:20;25.30;36.70
69382;DHT22;56560;50.692;12.844;2022-10-12T13:24:51;26.40;35.10
69382;DHT22;56560;50.692;12.844;2022-10-12T13:27:22;26.70;33.40
69382;DHT22;56560;50.692;12.844;2022-10-12T13:29:58;26.30;34.60
69382;DHT22;56560;50.692;12.844;2022-10-12T13:35:08;25.00;36.90
69382;DHT22;56560;50.692;12.844;2022-10-12T13:37:36;25.10;36.40
69382;DHT22;56560;50.692;12.844;2022-10-12T13:40:02;25.10;36.30
69382;DHT22;56560;50.692;12.844;2022-10-12T13:42:32;25.70;36.30
69382;DHT22;56560;50.692;12.844;2022-10-12T13:45:02;26.70;34.70
69382;DHT22;56560;50.692;12.844;2022-10-12T13:47:31;26.80;34.20
69382;DHT22;56560;50.692;12.844;2022-10-12T13:49:58;26.40;34.40
69382;DHT22;56560;50.692;12.844;2022-10-12T13:52:32;26.10;34.70
69382;DHT22;56560;50.692;12.844;2022-10-12T13:54:58;25.00;35.90
69382;DHT22;56560;50.692;12.844;2022-10-12T13:57:40;24.80;36.80
69382;DHT22;56560;50.692;12.844;2022-10-12T14:02:38;23.80;38.30
69382;DHT22;56560;50.692;12.844;2022-10-12T14:05:10;22.80;39.80
69382;DHT22;56560;50.692;12.844;2022-10-12T14:07:40;22.00;41.40
69382;DHT22;56560;50.692;12.844;2022-10-12T14:10:11;21.90;42.70
69382;DHT22;56560;50.692;12.844;2022-10-12T14:12:44;21.40;43.20
69382;DHT22;56560;50.692;12.844;2022-10-12T14:15:12;21.10;44.60
69382;DHT22;56560;50.692;12.844;2022-10-12T14:17:42;20.80;45.40
69382;DHT22;56560;50.692;12.844;2022-10-12T14:20:29;20.40;46.30
69382;DHT22;56560;50.692;12.844;2022-10-12T14:22:57;20.60;46.80
69382;DHT22;56560;50.692;12.844;2022-10-12T14:25:26;21.10;45.30
69382;DHT22;56560;50.692;12.844;2022-10-12T14:27:54;21.20;45.10
69382;DHT22;56560;50.692;12.844;2022-10-12T14:30:28;20.90;45.50
69382;DHT22;56560;50.692;12.844;2022-10-12T14:33:08;20.80;45.70
69382;DHT22;56560;50.692;12.844;2022-10-12T14:35:35;20.60;45.70
69382;DHT22;56560;50.692;12.844;2022-10-12T14:41:33;20.10;47.70
69382;DHT22;56560;50.692;12.844;2022-10-12T14:46:40;21.40;45.70
69382;DHT22;56560;50.692;12.844;2022-10-12T14:49:13;22.30;44.40
69382;DHT22;56560;50.692;12.844;2022-10-12T14:51:41;23.40;41.50
69382;DHT22;56560;50.692;12.844;2022-10-12T14:54:08;24.20;40.40
69382;DHT22;56560;50.692;12.844;2022-10-12T14:56:34;24.20;40.30
69382;DHT22;56560;50.692;12.844;2022-10-12T14:59:00;23.20;41.30
69382;DHT22;56560;50.692;12.844;2022-10-12T15:01:25;21.90;43.70
69382;DHT22;56560;50.692;12.844;2022-10-12T15:03:51;20.60;45.80
69382;DHT22;56560;50.692;12.844;2022-10-12T15:06:16;19.90;48.20
69382;DHT22;56560;50.692;12.844;2022-10-12T15:08:42;19.40;49.50
69382;DHT22;56560;50.692;12.844;2022-10-12T15:11:12;19.00;50.20
69382;DHT22;56560;50.692;12.844;2022-10-12T15:13:39;18.60;51.90
69382;DHT22;56560;50.692;12.844;2022-10-12T15:16:15;18.30;52.50
69382;DHT22;56560;50.692;12.844;2022-10-12T15:18:42;18.20;54.70
69382;DHT22;56560;50.692;12.844;2022-10-12T15:21:08;18.10;54.00
69382;DHT22;56560;50.692;12.844;2022-10-12T15:23:34;17.90;53.70
69382;DHT22;56560;50.692;12.844;2022-10-12T15:25:59;17.80;54.10
69382;DHT22;56560;50.692;12.844;2022-10-12T15:28:25;17.60;54.40
69382;DHT22;56560;50.692;12.844;2022-10-12T15:30:57;17.50;55.10
69382;DHT22;56560;50.692;12.844;2022-10-12T15:33:24;17.20;55.50
69382;DHT22;56560;50.692;12.844;2022-10-12T15:35:50;16.90;57.10
69382;DHT22;56560;50.692;12.844;2022-10-12T15:38:15;16.60;60.20
69382;DHT22;56560;50.692;12.844;2022-10-12T15:40:43;16.30;61.00
69382;DHT22;56560;50.692;12.844;2022-10-12T15:43:09;15.90;61.40
69382;DHT22;56560;50.692;12.844;2022-10-12T15:45:37;15.50;61.80
69382;DHT22;56560;50.692;12.844;2022-10-12T15:48:04;15.20;62.60
69382;DHT22;56560;50.692;12.844;2022-10-12T15:50:48;14.90;64.10
69382;DHT22;56560;50.692;12.844;2022-10-12T15:53:17;14.60;65.80
69382;DHT22;56560;50.692;12.844;2022-10-12T15:55:44;14.30;65.20
69382;DHT22;56560;50.692;12.844;2022-10-12T15:58:10;14.10;67.00
69382;DHT22;56560;50.692;12.844;2022-10-12T16:00:36;13.90;67.50
69382;DHT22;56560;50.692;12.844;2022-10-12T16:03:01;13.70;68.30
69382;DHT22;56560;50.692;12.844;2022-10-12T16:05:33;13.40;69.40
69382;DHT22;56560;50.692;12.844;2022-10-12T16:08:00;13.20;69.50
69382;DHT22;56560;50.692;12.844;2022-10-12T16:10:35;13.10;70.40
69382;DHT22;56560;50.692;12.844;2022-10-12T16:13:05;12.90;71.00
69382;DHT22;56560;50.692;12.844;2022-10-12T16:15:33;12.90;71.30
69382;DHT22;56560;50.692;12.844;2022-10-12T16:18:00;12.80;71.90
69382;DHT22;56560;50.692;12.844;2022-10-12T16:20:28;12.70;72.30
69382;DHT22;56560;50.692;12.844;2022-10-12T16:22:55;12.50;73.10
69382;DHT22;56560;50.692;12.844;2022-10-12T16:25:23;12.30;73.70
69382;DHT22;56560;50.692;12.844;2022-10-12T16:27:50;12.20;74.00
69382;DHT22;56560;50.692;12.844;2022-10-12T16:30:16;12.10;74.50
69382;DHT22;56560;50.692;12.844;2022-10-12T16:32:41;12.00;75.30
69382;DHT22;56560;50.692;12.844;2022-10-12T16:35:07;11.70;74.60
69382;DHT22;56560;50.692;12.844;2022-10-12T16:37:34;11.50;74.50
69382;DHT22;56560;50.692;12.844;2022-10-12T16:40:00;11.40;75.60
69382;DHT22;56560;50.692;12.844;2022-10-12T16:42:26;11.20;77.30
69382;DHT22;56560;50.692;12.844;2022-10-12T16:44:51;11.10;77.80
69382;DHT22;56560;50.692;12.844;2022-10-12T16:47:17;11.00;77.20
69382;DHT22;56560;50.692;12.844;2022-10-12T16:49:44;10.80;78.00
69382;DHT22;56560;50.692;12.844;2022-10-12T16:52:10;10.70;77.20
69382;DHT22;56560;50.692;12.844;2022-10-12T16:54:36;10.50;78.10
69382;DHT22;56560;50.692;12.844;2022-10-12T16:57:01;10.30;78.60
69382;DHT22;56560;50.692;12.844;2022-10-12T16:59:27;10.20;80.00
69382;DHT22;56560;50.692;12.844;2022-10-12T17:01:53;10.10;79.60
69382;DHT22;56560;50.692;12.844;2022-10-12T17:04:18;10.00;81.10
69382;DHT22;56560;50.692;12.844;2022-10-12T17:06:45;9.90;80.60
69382;DHT22;56560;50.692;12.844;2022-10-12T17:09:11;9.80;81.40
69382;DHT22;56560;50.692;12.844;2022-10-12T17:11:38;9.80;82.10
69382;DHT22;56560;50.692;12.844;2022-10-12T17:14:10;9.70;82.00
69382;DHT22;56560;50.692;12.844;2022-10-12T17:16:35;9.60;82.20
69382;DHT22;56560;50.692;12.844;2022-10-12T17:19:30;9.50;81.90
69382;DHT22;56560;50.692;12.844;2022-10-12T17:21:56;9.40;81.60
69382;DHT22;56560;50.692;12.844;2022-10-12T17:24:25;9.30;81.30
69382;DHT22;56560;50.692;12.844;2022-10-12T17:26:51;9.20;82.90
69382;DHT22;56560;50.692;12.844;2022-10-12T17:29:19;9.20;82.20
69382;DHT22;56560;50.692;12.844;2022-10-12T17:31:46;9.10;83.00
69382;DHT22;56560;50.692;12.844;2022-10-12T17:34:22;9.00;82.80
69382;DHT22;56560;50.692;12.844;2022-10-12T17:36:49;8.90;82.90
69382;DHT22;56560;50.692;12.844;2022-10-12T17:39:16;8.80;82.20
69382;DHT22;56560;50.692;12.844;2022-10-12T17:41:41;8.70;83.20
69382;DHT22;56560;50.692;12.844;2022-10-12T17:44:07;8.70;83.50
69382;DHT22;56560;50.692;12.844;2022-10-12T17:46:36;8.60;84.30
69382;DHT22;56560;50.692;12.844;2022-10-12T17:49:02;8.50;83.20